Crosstown, Tennessee
Current Conditions -  °F | °C
As of 9:55 AM on Sunday 23 Nov 2014 (Local Time) from KNQA Reporting Station
Overcast Overcast  
Wind Chill: 59°   Ceiling: 1000
Heat Index: 59°   Visibility: 10mi
Dew Point: 57°   Wind: 8mph
Humidity: 94%   Direction: 130°SE
Pressure: 29.65"   Gusts: NA
Location:  35.4184°N, 89.8065°W
Report Text: KNQA 231555Z 13007KT 10SM OVC010 15/14 A2965
Loading
Personal Weather Stations






























Interactive Weather Map New forecast layout! Learn more

10-Day Weather Forecast

Advertisements
Track Severe Weather on mobile